Time;durP1;ratioP1;P1;durP2;ratioP2;P2;SDS_P1;SDS_P2;PMS_P1;PMS_P2;Temp;Humidity;BMP_temperature;BMP_pressure;BME280_temperature;BME280_humidity;BME280_pressure;Samples;Min_cycle;Max_cycle;Signal;HPM_P1;HPM_P2
2023/08/24 00:12:08;;;;;;;29.60;26.80;;;;;;;-128.00;-1.00;-1.00;105832;1251;1047175;-76
2023/08/24 00:14:35;;;;;;;31.80;28.80;;;;;;;-128.00;-1.00;-1.00;105824;1251;1005394;-76
2023/08/24 00:17:01;;;;;;;32.40;29.40;;;;;;;-128.00;-1.00;-1.00;105834;1251;1003850;-75
2023/08/24 00:19:28;;;;;;;34.40;30.80;;;;;;;-128.00;-1.00;-1.00;105803;1251;1004276;-74
2023/08/24 00:21:54;;;;;;;34.40;31.30;;;;;;;-128.00;-1.00;-1.00;105779;1251;1003279;-76
2023/08/24 00:24:21;;;;;;;35.50;32.00;;;;;;;-128.00;-1.00;-1.00;105817;1251;1004443;-74
2023/08/24 00:26:47;;;;;;;33.80;30.40;;;;;;;-128.00;-1.00;-1.00;105808;1251;1003921;-76
2023/08/24 00:29:14;;;;;;;34.40;31.10;;;;;;;-128.00;-1.00;-1.00;105797;1251;1003575;-76
2023/08/24 00:31:40;;;;;;;34.20;30.80;;;;;;;-128.00;-1.00;-1.00;105782;1251;1003281;-76
2023/08/24 00:34:07;;;;;;;34.50;31.40;;;;;;;-128.00;-1.00;-1.00;105815;1251;1004538;-76
2023/08/24 00:36:33;;;;;;;35.10;31.50;;;;;;;-128.00;-1.00;-1.00;105811;1251;1004287;-75
2023/08/24 00:39:00;;;;;;;34.00;30.80;;;;;;;-128.00;-1.00;-1.00;105805;1250;1004106;-73
2023/08/24 00:41:27;;;;;;;32.10;29.00;;;;;;;-128.00;-1.00;-1.00;105838;1251;1005663;-76
2023/08/24 00:43:53;;;;;;;33.20;29.70;;;;;;;-128.00;-1.00;-1.00;105634;1251;1004834;-77
2023/08/24 00:46:20;;;;;;;33.00;29.50;;;;;;;-128.00;-1.00;-1.00;105780;1251;1004818;-76
2023/08/24 00:48:47;;;;;;;30.80;27.60;;;;;;;-128.00;-1.00;-1.00;105819;1251;1004284;-76
2023/08/24 00:51:14;;;;;;;30.00;27.10;;;;;;;-128.00;-1.00;-1.00;105820;1251;1005091;-77
2023/08/24 00:53:40;;;;;;;30.50;27.60;;;;;;;-128.00;-1.00;-1.00;105816;1251;1004376;-76
2023/08/24 00:56:07;;;;;;;27.10;24.40;;;;;;;-128.00;-1.00;-1.00;105584;1251;1004206;-77
2023/08/24 00:58:34;;;;;;;29.70;26.80;;;;;;;-128.00;-1.00;-1.00;105794;1251;1004006;-77
2023/08/24 01:01:00;;;;;;;32.20;29.20;;;;;;;-128.00;-1.00;-1.00;105813;1251;1004260;-77
2023/08/24 01:03:27;;;;;;;33.40;30.10;;;;;;;-128.00;-1.00;-1.00;105785;1251;1004214;-77
2023/08/24 01:05:53;;;;;;;28.40;25.80;;;;;;;-128.00;-1.00;-1.00;105781;1251;1003490;-78
2023/08/24 01:08:21;;;;;;;27.40;24.80;;;;;;;-128.00;-1.00;-1.00;105749;1252;1005178;-76
2023/08/24 01:10:52;;;;;;;29.20;25.80;;;;;;;-128.00;-1.00;-1.00;105813;1251;1003791;-77
2023/08/24 01:13:30;;;;;;;21.90;20.00;;;;;;;-128.00;-1.00;-1.00;105842;1251;1046355;-76
2023/08/24 01:16:16;;;;;;;22.90;20.70;;;;;;;-128.00;-1.00;-1.00;105699;1251;1062311;-77
2023/08/24 01:18:44;;;;;;;22.30;20.40;;;;;;;-128.00;-1.00;-1.00;105865;1251;1056347;-76
2023/08/24 01:21:12;;;;;;;19.10;17.40;;;;;;;-128.00;-1.00;-1.00;105783;1251;1003673;-76
2023/08/24 01:23:57;;;;;;;16.40;14.90;;;;;;;-128.00;-1.00;-1.00;105832;1251;1004074;-76
2023/08/24 01:26:24;;;;;;;15.60;14.30;;;;;;;-128.00;-1.00;-1.00;105829;1251;1046987;-77
2023/08/24 01:28:52;;;;;;;16.10;14.60;;;;;;;-128.00;-1.00;-1.00;105718;1251;1004431;-76
2023/08/24 01:31:18;;;;;;;22.90;20.80;;;;;;;-128.00;-1.00;-1.00;105814;1251;1004862;-74
2023/08/24 01:33:45;;;;;;;21.40;19.30;;;;;;;-128.00;-1.00;-1.00;105801;1251;1004494;-77
2023/08/24 01:36:14;;;;;;;20.70;18.80;;;;;;;-128.00;-1.00;-1.00;105821;1251;1003304;-77
2023/08/24 01:38:41;;;;;;;23.50;21.20;;;;;;;-128.00;-1.00;-1.00;105812;1251;1048024;-76
2023/08/24 01:41:26;;;;;;;22.80;20.70;;;;;;;-128.00;-1.00;-1.00;105771;1251;1004242;-73
2023/08/24 01:43:54;;;;;;;25.20;22.70;;;;;;;-128.00;-1.00;-1.00;105757;1251;1054708;-76
2023/08/24 01:46:22;;;;;;;27.20;24.40;;;;;;;-128.00;-1.00;-1.00;105754;1251;1060485;-76
2023/08/24 01:48:49;;;;;;;24.30;22.20;;;;;;;-128.00;-1.00;-1.00;105760;1251;1003959;-74
2023/08/24 01:51:16;;;;;;;22.80;20.70;;;;;;;-128.00;-1.00;-1.00;105855;1251;1005591;-76
2023/08/24 01:53:44;;;;;;;25.20;22.60;;;;;;;-128.00;-1.00;-1.00;105863;1251;1004554;-76
2023/08/24 01:56:15;;;;;;;25.20;22.60;;;;;;;-128.00;-1.00;-1.00;105774;1251;1004633;-75
2023/08/24 01:58:42;;;;;;;27.30;24.60;;;;;;;-128.00;-1.00;-1.00;105790;1251;1060221;-75
2023/08/24 02:01:09;;;;;;;26.90;24.00;;;;;;;-128.00;-1.00;-1.00;105815;1251;1003532;-75
2023/08/24 02:03:36;;;;;;;25.10;22.60;;;;;;;-128.00;-1.00;-1.00;105825;1251;1004917;-75
2023/08/24 02:06:02;;;;;;;23.40;21.00;;;;;;;-128.00;-1.00;-1.00;105708;1251;1004616;-76
2023/08/24 02:08:29;;;;;;;26.60;24.00;;;;;;;-128.00;-1.00;-1.00;105847;1251;1003245;-75
2023/08/24 02:10:56;;;;;;;28.50;25.90;;;;;;;-128.00;-1.00;-1.00;105795;1251;1004490;-75
2023/08/24 02:13:23;;;;;;;28.20;25.40;;;;;;;-128.00;-1.00;-1.00;105801;1251;1004315;-76
2023/08/24 02:15:49;;;;;;;29.30;26.80;;;;;;;-128.00;-1.00;-1.00;105826;1251;1005125;-77
2023/08/24 02:18:16;;;;;;;26.50;23.80;;;;;;;-128.00;-1.00;-1.00;105837;1251;1003768;-75
2023/08/24 02:20:42;;;;;;;23.50;21.30;;;;;;;-128.00;-1.00;-1.00;105514;1250;1004477;-76
2023/08/24 02:23:09;;;;;;;25.00;22.40;;;;;;;-128.00;-1.00;-1.00;105807;1251;1003938;-76
2023/08/24 02:25:42;;;;;;;25.90;23.20;;;;;;;-128.00;-1.00;-1.00;105542;1251;1003763;-77
2023/08/24 02:28:09;;;;;;;25.60;23.10;;;;;;;-128.00;-1.00;-1.00;105793;1251;1048848;-77
2023/08/24 02:30:39;;;;;;;25.60;22.90;;;;;;;-128.00;-1.00;-1.00;105862;1251;1004306;-76
2023/08/24 02:33:05;;;;;;;32.70;24.40;;;;;;;-128.00;-1.00;-1.00;105829;1250;1056052;-76
2023/08/24 02:35:32;;;;;;;23.40;21.00;;;;;;;-128.00;-1.00;-1.00;105767;1251;1004476;-77
2023/08/24 02:37:58;;;;;;;24.00;20.60;;;;;;;-128.00;-1.00;-1.00;105816;1251;1004965;-77
2023/08/24 02:40:25;;;;;;;24.40;21.80;;;;;;;-128.00;-1.00;-1.00;105749;1251;1004643;-77
2023/08/24 02:42:51;;;;;;;26.00;23.40;;;;;;;-128.00;-1.00;-1.00;105798;1251;1004851;-76
2023/08/24 02:45:18;;;;;;;32.00;28.60;;;;;;;-128.00;-1.00;-1.00;105807;1250;1003820;-77
2023/08/24 02:47:44;;;;;;;47.70;33.40;;;;;;;-128.00;-1.00;-1.00;105747;1251;1004266;-76
2023/08/24 02:50:11;;;;;;;115.20;35.90;;;;;;;-128.00;-1.00;-1.00;105579;1251;1003455;-75
2023/08/24 02:52:37;;;;;;;66.20;36.30;;;;;;;-128.00;-1.00;-1.00;105771;1254;1004326;-76
2023/08/24 02:55:05;;;;;;;52.40;35.70;;;;;;;-128.00;-1.00;-1.00;105813;1251;1004952;-76
2023/08/24 02:57:35;;;;;;;88.80;37.30;;;;;;;-128.00;-1.00;-1.00;105562;1250;1004184;-76
2023/08/24 03:00:03;;;;;;;72.20;35.70;;;;;;;-128.00;-1.00;-1.00;105778;1251;1059526;-76
2023/08/24 03:02:29;;;;;;;80.50;36.10;;;;;;;-128.00;-1.00;-1.00;105762;1251;1004518;-76
2023/08/24 03:04:56;;;;;;;87.50;37.40;;;;;;;-128.00;-1.00;-1.00;105799;1251;1004023;-76
2023/08/24 03:07:22;;;;;;;84.10;36.30;;;;;;;-128.00;-1.00;-1.00;105745;1250;1004292;-76
2023/08/24 03:09:49;;;;;;;127.70;37.40;;;;;;;-128.00;-1.00;-1.00;105826;1251;1004116;-76
2023/08/24 03:12:15;;;;;;;67.50;33.50;;;;;;;-128.00;-1.00;-1.00;105775;1251;1004408;-76
2023/08/24 03:14:42;;;;;;;112.30;35.10;;;;;;;-128.00;-1.00;-1.00;105805;1251;1004583;-76
2023/08/24 03:17:09;;;;;;;93.80;35.50;;;;;;;-128.00;-1.00;-1.00;105807;1251;1004864;-76
2023/08/24 03:19:35;;;;;;;143.50;36.60;;;;;;;-128.00;-1.00;-1.00;105826;1251;1003874;-76
2023/08/24 03:22:02;;;;;;;97.50;35.30;;;;;;;-128.00;-1.00;-1.00;105817;1251;1003751;-76
2023/08/24 03:24:28;;;;;;;77.90;35.60;;;;;;;-128.00;-1.00;-1.00;105747;1251;1005000;-77
2023/08/24 03:26:55;;;;;;;61.90;35.80;;;;;;;-128.00;-1.00;-1.00;105754;1251;1004388;-76
2023/08/24 03:29:22;;;;;;;55.80;37.00;;;;;;;-128.00;-1.00;-1.00;105835;1251;1004468;-77
2023/08/24 03:31:48;;;;;;;54.20;36.60;;;;;;;-128.00;-1.00;-1.00;105825;1251;1004291;-75
2023/08/24 03:34:16;;;;;;;67.10;36.40;;;;;;;-128.00;-1.00;-1.00;105600;1251;1004285;-75
2023/08/24 03:36:42;;;;;;;52.90;37.00;;;;;;;-128.00;-1.00;-1.00;105788;1251;1003321;-76
2023/08/24 03:39:09;;;;;;;78.20;37.60;;;;;;;-128.00;-1.00;-1.00;105586;1251;1004185;-76
2023/08/24 03:41:36;;;;;;;83.20;36.10;;;;;;;-128.00;-1.00;-1.00;105783;1251;1004559;-76
2023/08/24 03:44:02;;;;;;;55.40;36.80;;;;;;;-128.00;-1.00;-1.00;105855;1251;1004605;-75
2023/08/24 03:46:29;;;;;;;84.70;39.90;;;;;;;-128.00;-1.00;-1.00;105808;1251;1004490;-75
2023/08/24 03:48:55;;;;;;;125.50;37.70;;;;;;;-128.00;-1.00;-1.00;105830;1251;1004354;-75
2023/08/24 03:51:22;;;;;;;43.80;38.70;;;;;;;-128.00;-1.00;-1.00;105825;1251;1004058;-75
2023/08/24 03:53:49;;;;;;;39.50;35.30;;;;;;;-128.00;-1.00;-1.00;105858;1251;1003460;-76
2023/08/24 03:56:15;;;;;;;41.20;37.00;;;;;;;-128.00;-1.00;-1.00;105832;1251;1004266;-75
2023/08/24 03:58:42;;;;;;;53.60;37.10;;;;;;;-128.00;-1.00;-1.00;105797;1251;1004535;-75
2023/08/24 04:01:11;;;;;;;65.10;40.30;;;;;;;-128.00;-1.00;-1.00;105787;1251;1004392;-74
2023/08/24 04:03:38;;;;;;;101.90;39.70;;;;;;;-128.00;-1.00;-1.00;105795;1251;1046503;-74
2023/08/24 04:06:05;;;;;;;45.80;39.00;;;;;;;-128.00;-1.00;-1.00;105825;1251;1004482;-76
2023/08/24 04:08:32;;;;;;;50.00;40.40;;;;;;;-128.00;-1.00;-1.00;105808;1251;1003686;-76
2023/08/24 04:10:58;;;;;;;42.70;38.60;;;;;;;-128.00;-1.00;-1.00;105801;1251;1005113;-76
2023/08/24 04:13:25;;;;;;;41.20;37.40;;;;;;;-128.00;-1.00;-1.00;105774;1251;1004270;-76
2023/08/24 04:15:52;;;;;;;40.20;36.70;;;;;;;-128.00;-1.00;-1.00;105781;1251;1004458;-76
2023/08/24 04:18:18;;;;;;;33.50;30.60;;;;;;;-128.00;-1.00;-1.00;105753;1251;1004610;-76
2023/08/24 04:20:45;;;;;;;33.00;30.20;;;;;;;-128.00;-1.00;-1.00;105673;1251;1004495;-77
2023/08/24 04:23:13;;;;;;;28.20;25.90;;;;;;;-128.00;-1.00;-1.00;105840;1251;1004513;-76
2023/08/24 04:25:40;;;;;;;28.50;25.90;;;;;;;-128.00;-1.00;-1.00;105802;1251;1004684;-75
2023/08/24 04:28:06;;;;;;;27.50;25.20;;;;;;;-128.00;-1.00;-1.00;105712;1253;1005069;-76
2023/08/24 04:30:33;;;;;;;20.80;19.10;;;;;;;-128.00;-1.00;-1.00;105557;1253;1004885;-77
2023/08/24 04:32:59;;;;;;;20.80;19.10;;;;;;;-128.00;-1.00;-1.00;105794;1251;1006474;-76
2023/08/24 04:35:26;;;;;;;21.00;19.20;;;;;;;-128.00;-1.00;-1.00;105553;1251;1003585;-74
2023/08/24 04:37:53;;;;;;;16.20;14.90;;;;;;;-128.00;-1.00;-1.00;105780;1251;1003702;-74
2023/08/24 04:40:20;;;;;;;18.80;17.40;;;;;;;-128.00;-1.00;-1.00;105743;1251;1004700;-75
2023/08/24 04:42:47;;;;;;;51.80;20.30;;;;;;;-128.00;-1.00;-1.00;105862;1251;1005290;-76
2023/08/24 04:45:14;;;;;;;68.40;19.60;;;;;;;-128.00;-1.00;-1.00;105777;1251;1004274;-74
2023/08/24 04:47:41;;;;;;;58.20;20.50;;;;;;;-128.00;-1.00;-1.00;105774;1251;1004072;-75
2023/08/24 04:50:08;;;;;;;70.70;22.00;;;;;;;-128.00;-1.00;-1.00;105758;1251;1005750;-76
2023/08/24 04:52:34;;;;;;;97.60;21.70;;;;;;;-128.00;-1.00;-1.00;105692;1251;1004716;-76
2023/08/24 04:55:02;;;;;;;54.00;21.90;;;;;;;-128.00;-1.00;-1.00;105790;1251;1004182;-74
2023/08/24 04:57:29;;;;;;;64.10;21.30;;;;;;;-128.00;-1.00;-1.00;105756;1251;1004262;-73
2023/08/24 04:59:55;;;;;;;65.00;22.90;;;;;;;-128.00;-1.00;-1.00;105810;1251;1006116;-73
2023/08/24 05:02:22;;;;;;;52.30;21.30;;;;;;;-128.00;-1.00;-1.00;105590;1251;1003771;-73
2023/08/24 05:04:48;;;;;;;121.00;22.80;;;;;;;-128.00;-1.00;-1.00;105779;1251;1006077;-75
2023/08/24 05:07:15;;;;;;;134.20;22.30;;;;;;;-128.00;-1.00;-1.00;105570;1251;1004562;-74
2023/08/24 05:09:42;;;;;;;81.40;22.30;;;;;;;-128.00;-1.00;-1.00;105836;1251;1004177;-73
2023/08/24 05:12:08;;;;;;;100.90;23.90;;;;;;;-128.00;-1.00;-1.00;105791;1251;1003716;-74
2023/08/24 05:14:35;;;;;;;80.00;23.70;;;;;;;-128.00;-1.00;-1.00;105451;1254;1004407;-74
2023/08/24 05:17:01;;;;;;;36.30;22.30;;;;;;;-128.00;-1.00;-1.00;105799;1250;1003938;-74
2023/08/24 05:19:28;;;;;;;52.90;22.50;;;;;;;-128.00;-1.00;-1.00;105802;1251;1004043;-74
2023/08/24 05:21:54;;;;;;;30.80;23.40;;;;;;;-128.00;-1.00;-1.00;105815;1251;1004870;-74
2023/08/24 05:24:21;;;;;;;25.20;22.80;;;;;;;-128.00;-1.00;-1.00;105793;1251;1004103;-74
2023/08/24 05:26:47;;;;;;;23.40;21.20;;;;;;;-128.00;-1.00;-1.00;105792;1251;1003554;-74
2023/08/24 05:29:14;;;;;;;21.90;19.70;;;;;;;-128.00;-1.00;-1.00;105768;1251;1003764;-73
2023/08/24 05:31:40;;;;;;;22.90;20.70;;;;;;;-128.00;-1.00;-1.00;105784;1251;1003377;-74
2023/08/24 05:34:07;;;;;;;21.60;19.50;;;;;;;-128.00;-1.00;-1.00;105839;1251;1004918;-73
2023/08/24 05:36:33;;;;;;;23.40;21.00;;;;;;;-128.00;-1.00;-1.00;105777;1251;1004370;-73
2023/08/24 05:39:00;;;;;;;21.70;19.60;;;;;;;-128.00;-1.00;-1.00;105721;1251;1005217;-74
2023/08/24 05:41:26;;;;;;;22.60;20.60;;;;;;;-128.00;-1.00;-1.00;105789;1255;1004118;-74
2023/08/24 05:43:53;;;;;;;21.60;19.50;;;;;;;-128.00;-1.00;-1.00;105765;1251;1004619;-73
2023/08/24 05:46:20;;;;;;;21.10;19.30;;;;;;;-128.00;-1.00;-1.00;105466;1251;1004518;-73
2023/08/24 05:48:46;;;;;;;20.30;18.50;;;;;;;-128.00;-1.00;-1.00;105800;1251;1003838;-74
2023/08/24 05:51:13;;;;;;;21.00;19.00;;;;;;;-128.00;-1.00;-1.00;105760;1251;1003297;-75
2023/08/24 05:53:40;;;;;;;20.20;18.40;;;;;;;-128.00;-1.00;-1.00;105730;1251;1004128;-73
2023/08/24 05:56:07;;;;;;;19.30;17.30;;;;;;;-128.00;-1.00;-1.00;105763;1251;1004119;-74
2023/08/24 05:58:33;;;;;;;19.70;17.70;;;;;;;-128.00;-1.00;-1.00;105804;1251;1004418;-74
2023/08/24 06:01:00;;;;;;;19.10;17.50;;;;;;;-128.00;-1.00;-1.00;105810;1255;1004501;-74
2023/08/24 06:03:27;;;;;;;21.00;18.90;;;;;;;-128.00;-1.00;-1.00;105732;1251;1004417;-74
2023/08/24 06:05:53;;;;;;;18.80;17.10;;;;;;;-128.00;-1.00;-1.00;105775;1251;1003583;-74
2023/08/24 06:08:20;;;;;;;19.40;17.50;;;;;;;-128.00;-1.00;-1.00;105491;1251;1004495;-74
2023/08/24 06:10:46;;;;;;;19.60;17.80;;;;;;;-128.00;-1.00;-1.00;105779;1251;1004443;-74
2023/08/24 06:13:13;;;;;;;20.70;17.40;;;;;;;-128.00;-1.00;-1.00;105810;1251;1004453;-74
2023/08/24 06:15:40;;;;;;;18.90;17.30;;;;;;;-128.00;-1.00;-1.00;105823;1251;1004502;-73
2023/08/24 06:18:06;;;;;;;19.40;17.10;;;;;;;-128.00;-1.00;-1.00;105825;1251;1006085;-73
2023/08/24 06:20:33;;;;;;;17.80;16.10;;;;;;;-128.00;-1.00;-1.00;105755;1251;1004595;-73
2023/08/24 06:23:00;;;;;;;18.20;16.50;;;;;;;-128.00;-1.00;-1.00;105799;1251;1004708;-73
2023/08/24 06:25:26;;;;;;;17.50;15.90;;;;;;;-128.00;-1.00;-1.00;105849;1251;1005011;-74
2023/08/24 06:27:53;;;;;;;17.30;15.70;;;;;;;-128.00;-1.00;-1.00;105765;1251;1004182;-74
2023/08/24 06:30:19;;;;;;;15.80;14.40;;;;;;;-128.00;-1.00;-1.00;105775;1251;1005040;-74
2023/08/24 06:32:46;;;;;;;17.60;15.80;;;;;;;-128.00;-1.00;-1.00;105540;1251;1005772;-73
2023/08/24 06:35:15;;;;;;;16.30;14.80;;;;;;;-128.00;-1.00;-1.00;105784;1251;1004414;-73
2023/08/24 06:37:42;;;;;;;16.90;15.20;;;;;;;-128.00;-1.00;-1.00;105779;1251;1056301;-81
2023/08/24 06:40:09;;;;;;;17.20;15.60;;;;;;;-128.00;-1.00;-1.00;105705;1251;1004420;-75
2023/08/24 06:42:36;;;;;;;14.80;13.30;;;;;;;-128.00;-1.00;-1.00;105716;1251;1003964;-76
2023/08/24 06:45:02;;;;;;;18.50;14.50;;;;;;;-128.00;-1.00;-1.00;105690;1254;1004243;-77
2023/08/24 06:47:29;;;;;;;15.90;14.30;;;;;;;-128.00;-1.00;-1.00;105523;1252;1005249;-76
2023/08/24 06:49:55;;;;;;;15.20;13.70;;;;;;;-128.00;-1.00;-1.00;105696;1252;1003408;-76
2023/08/24 06:52:22;;;;;;;14.80;13.30;;;;;;;-128.00;-1.00;-1.00;105578;1253;1004094;-75
2023/08/24 06:54:53;;;;;;;16.40;14.90;;;;;;;-128.00;-1.00;-1.00;105631;1254;1004911;-77
2023/08/24 06:57:20;;;;;;;16.30;14.70;;;;;;;-128.00;-1.00;-1.00;105459;1254;1047097;-77
2023/08/24 06:59:46;;;;;;;16.70;15.10;;;;;;;-128.00;-1.00;-1.00;105759;1251;1004132;-75
2023/08/24 07:02:13;;;;;;;14.70;13.10;;;;;;;-128.00;-1.00;-1.00;105768;1251;1005361;-76
2023/08/24 07:04:40;;;;;;;15.30;13.70;;;;;;;-128.00;-1.00;-1.00;105504;1251;1004261;-76
2023/08/24 07:07:07;;;;;;;14.10;12.70;;;;;;;-128.00;-1.00;-1.00;105792;1251;1003982;-77
2023/08/24 07:09:34;;;;;;;15.10;13.20;;;;;;;-128.00;-1.00;-1.00;105816;1251;1003939;-77
2023/08/24 07:12:06;;;;;;;15.10;12.20;;;;;;;-128.00;-1.00;-1.00;105899;1250;1003878;-77
2023/08/24 07:14:33;;;;;;;12.90;11.60;;;;;;;-128.00;-1.00;-1.00;105926;1251;1055507;-77
2023/08/24 07:17:00;;;;;;;15.00;12.90;;;;;;;-128.00;-1.00;-1.00;105865;1251;1004581;-76
2023/08/24 07:19:27;;;;;;;14.30;12.80;;;;;;;-128.00;-1.00;-1.00;105926;1249;1004407;-75
2023/08/24 07:21:53;;;;;;;14.30;12.80;;;;;;;-128.00;-1.00;-1.00;105912;1251;1004363;-76
2023/08/24 07:24:20;;;;;;;14.80;13.20;;;;;;;-128.00;-1.00;-1.00;105801;1249;1004758;-75
2023/08/24 07:26:47;;;;;;;14.00;11.30;;;;;;;-128.00;-1.00;-1.00;105955;1250;1004346;-76
2023/08/24 07:29:13;;;;;;;14.10;12.70;;;;;;;-128.00;-1.00;-1.00;105915;1251;1006006;-76
2023/08/24 07:31:40;;;;;;;15.60;13.70;;;;;;;-128.00;-1.00;-1.00;105939;1250;1003636;-75
2023/08/24 07:34:06;;;;;;;13.40;11.70;;;;;;;-128.00;-1.00;-1.00;105949;1251;1004191;-75
2023/08/24 07:36:33;;;;;;;16.60;11.70;;;;;;;-128.00;-1.00;-1.00;105975;1250;1005186;-75
2023/08/24 07:38:59;;;;;;;13.20;11.80;;;;;;;-128.00;-1.00;-1.00;105892;1250;1004361;-75
2023/08/24 07:41:26;;;;;;;14.30;12.00;;;;;;;-128.00;-1.00;-1.00;105951;1251;1004468;-75
2023/08/24 07:43:52;;;;;;;12.30;11.20;;;;;;;-128.00;-1.00;-1.00;105920;1251;1005735;-76
2023/08/24 07:46:19;;;;;;;13.20;11.90;;;;;;;-128.00;-1.00;-1.00;105917;1249;1004250;-75
2023/08/24 07:48:46;;;;;;;12.30;10.60;;;;;;;-128.00;-1.00;-1.00;105946;1249;1004073;-75
2023/08/24 07:51:12;;;;;;;12.90;10.70;;;;;;;-128.00;-1.00;-1.00;105611;1251;1004049;-76
2023/08/24 07:53:39;;;;;;;12.60;11.30;;;;;;;-128.00;-1.00;-1.00;105889;1249;1004645;-75
2023/08/24 07:56:06;;;;;;;17.50;12.50;;;;;;;-128.00;-1.00;-1.00;105911;1251;1004600;-76
2023/08/24 07:58:33;;;;;;;13.30;12.00;;;;;;;-128.00;-1.00;-1.00;105937;1250;1004075;-75
2023/08/24 08:01:00;;;;;;;11.80;10.60;;;;;;;-128.00;-1.00;-1.00;105912;1250;1003194;-76
2023/08/24 08:03:27;;;;;;;13.10;10.20;;;;;;;-128.00;-1.00;-1.00;105897;1250;1005030;-75
2023/08/24 08:05:54;;;;;;;17.10;9.80;;;;;;;-128.00;-1.00;-1.00;105885;1250;1004722;-75
2023/08/24 08:08:21;;;;;;;11.20;9.70;;;;;;;-128.00;-1.00;-1.00;105924;1250;1004199;-75
2023/08/24 08:10:58;;;;;;;10.40;9.10;;;;;;;-128.00;-1.00;-1.00;105947;1250;1003886;-75
2023/08/24 08:13:25;;;;;;;10.90;9.10;;;;;;;-128.00;-1.00;-1.00;105660;1250;1061598;-76
2023/08/24 08:15:52;;;;;;;9.50;8.60;;;;;;;-128.00;-1.00;-1.00;105948;1251;1003417;-76
2023/08/24 08:18:19;;;;;;;10.70;9.00;;;;;;;-128.00;-1.00;-1.00;105873;1250;1004495;-76
2023/08/24 08:20:45;;;;;;;13.00;9.40;;;;;;;-128.00;-1.00;-1.00;105872;1251;1005510;-76
2023/08/24 08:23:12;;;;;;;9.20;7.70;;;;;;;-128.00;-1.00;-1.00;105896;1250;1004320;-76
2023/08/24 08:25:39;;;;;;;8.70;7.70;;;;;;;-128.00;-1.00;-1.00;105975;1250;1004664;-75
2023/08/24 08:28:05;;;;;;;11.00;7.60;;;;;;;-128.00;-1.00;-1.00;105937;1250;1004967;-75
2023/08/24 08:30:32;;;;;;;11.00;7.90;;;;;;;-128.00;-1.00;-1.00;105920;1250;1004119;-76
2023/08/24 08:32:58;;;;;;;9.10;7.80;;;;;;;-128.00;-1.00;-1.00;105748;1251;1003976;-71
2023/08/24 08:35:25;;;;;;;8.50;7.20;;;;;;;-128.00;-1.00;-1.00;105927;1249;1004816;-70
2023/08/24 08:37:53;;;;;;;7.90;7.20;;;;;;;-128.00;-1.00;-1.00;105948;1249;1004279;-71
2023/08/24 08:40:20;;;;;;;8.10;7.30;;;;;;;-128.00;-1.00;-1.00;105929;1250;1054819;-70
2023/08/24 08:42:47;;;;;;;8.00;6.70;;;;;;;-128.00;-1.00;-1.00;105927;1249;1004904;-73
2023/08/24 08:45:14;;;;;;;9.40;6.60;;;;;;;-128.00;-1.00;-1.00;105945;1250;1003778;-74
2023/08/24 08:47:41;;;;;;;7.30;6.40;;;;;;;-128.00;-1.00;-1.00;105921;1251;1005096;-74
2023/08/24 08:50:09;;;;;;;8.40;6.60;;;;;;;-128.00;-1.00;-1.00;105910;1249;1004625;-74
2023/08/24 08:52:35;;;;;;;7.90;6.30;;;;;;;-128.00;-1.00;-1.00;105896;1250;1004133;-74
2023/08/24 08:55:06;;;;;;;8.90;6.90;;;;;;;-128.00;-1.00;-1.00;105938;1250;1004461;-74
2023/08/24 08:57:33;;;;;;;6.60;6.00;;;;;;;-128.00;-1.00;-1.00;105601;1249;1046541;-75
2023/08/24 08:59:59;;;;;;;8.70;6.60;;;;;;;-128.00;-1.00;-1.00;105940;1251;1003610;-75
2023/08/24 09:02:28;;;;;;;9.30;6.20;;;;;;;-128.00;-1.00;-1.00;105871;1250;1004245;-74
2023/08/24 09:04:56;;;;;;;7.50;5.90;;;;;;;-128.00;-1.00;-1.00;105940;1249;1057077;-75
2023/08/24 09:07:23;;;;;;;8.40;5.70;;;;;;;-128.00;-1.00;-1.00;105984;1250;1004512;-75
2023/08/24 09:09:50;;;;;;;6.30;4.70;;;;;;;-128.00;-1.00;-1.00;105927;1249;1003178;-73
2023/08/24 09:12:17;;;;;;;5.60;4.90;;;;;;;-128.00;-1.00;-1.00;105912;1250;1004543;-75
2023/08/24 09:14:44;;;;;;;6.90;4.90;;;;;;;-128.00;-1.00;-1.00;105955;1249;1003833;-75
2023/08/24 09:17:10;;;;;;;5.80;4.30;;;;;;;-128.00;-1.00;-1.00;105992;1250;1004193;-74
2023/08/24 09:19:38;;;;;;;7.60;4.00;;;;;;;-128.00;-1.00;-1.00;105870;1250;1005621;-74
2023/08/24 09:22:07;;;;;;;7.50;4.60;;;;;;;-128.00;-1.00;-1.00;105908;1250;1004240;-74
2023/08/24 09:24:35;;;;;;;6.90;4.90;;;;;;;-128.00;-1.00;-1.00;105896;1250;1046866;-74
2023/08/24 09:27:19;;;;;;;4.80;4.30;;;;;;;-128.00;-1.00;-1.00;105894;1250;1004295;-74
2023/08/24 09:29:50;;;;;;;7.90;4.60;;;;;;;-128.00;-1.00;-1.00;105957;1250;1055709;-75
2023/08/24 09:32:24;;;;;;;5.10;4.40;;;;;;;-128.00;-1.00;-1.00;105943;1250;1058760;-75
2023/08/24 09:34:51;;;;;;;6.80;4.40;;;;;;;-128.00;-1.00;-1.00;105916;1249;1045483;-74
2023/08/24 09:37:17;;;;;;;5.40;3.80;;;;;;;-128.00;-1.00;-1.00;105943;1250;1004149;-75
2023/08/24 09:39:44;;;;;;;4.50;3.90;;;;;;;-128.00;-1.00;-1.00;105631;1250;1004833;-74
2023/08/24 09:42:12;;;;;;;5.70;3.50;;;;;;;-128.00;-1.00;-1.00;105926;1250;1004599;-74
2023/08/24 09:44:48;;;;;;;5.50;3.60;;;;;;;-128.00;-1.00;-1.00;105909;1250;1004060;-74
2023/08/24 09:47:15;;;;;;;6.00;3.70;;;;;;;-128.00;-1.00;-1.00;105885;1250;1044774;-74
2023/08/24 09:49:41;;;;;;;6.00;3.30;;;;;;;-128.00;-1.00;-1.00;105992;1249;1004090;-74
2023/08/24 09:52:08;;;;;;;3.80;3.20;;;;;;;-128.00;-1.00;-1.00;105667;1249;1003452;-74
2023/08/24 09:54:39;;;;;;;4.60;3.40;;;;;;;-128.00;-1.00;-1.00;105922;1250;1003920;-74
2023/08/24 09:57:08;;;;;;;3.80;2.80;;;;;;;-128.00;-1.00;-1.00;105985;1249;1059944;-75
2023/08/24 09:59:39;;;;;;;5.10;3.10;;;;;;;-128.00;-1.00;-1.00;105940;1250;1044423;-75
2023/08/24 10:02:15;;;;;;;6.30;2.90;;;;;;;-128.00;-1.00;-1.00;105915;1250;1046860;-75
2023/08/24 10:04:42;;;;;;;4.60;3.30;;;;;;;-128.00;-1.00;-1.00;105937;1250;1062354;-74
2023/08/24 10:07:20;;;;;;;4.60;3.40;;;;;;;-128.00;-1.00;-1.00;106020;1249;1003725;-75
2023/08/24 10:09:55;;;;;;;4.70;3.70;;;;;;;-128.00;-1.00;-1.00;105912;1250;1061215;-75
2023/08/24 10:12:26;;;;;;;5.40;3.60;;;;;;;-128.00;-1.00;-1.00;106003;1249;1045053;-75
2023/08/24 10:15:02;;;;;;;4.10;3.40;;;;;;;-128.00;-1.00;-1.00;105936;1250;1047515;-74
2023/08/24 10:17:32;;;;;;;6.50;3.60;;;;;;;-128.00;-1.00;-1.00;105958;1249;1062750;-74
2023/08/24 10:20:08;;;;;;;4.90;3.40;;;;;;;-128.00;-1.00;-1.00;105966;1250;1055326;-75
2023/08/24 10:22:37;;;;;;;5.20;3.30;;;;;;;-128.00;-1.00;-1.00;105988;1249;1059697;-74
2023/08/24 10:25:03;;;;;;;5.90;3.60;;;;;;;-128.00;-1.00;-1.00;105919;1250;1004263;-74
2023/08/24 10:27:30;;;;;;;3.80;3.30;;;;;;;-128.00;-1.00;-1.00;105634;1250;1003702;-73
2023/08/24 10:30:00;;;;;;;3.50;3.20;;;;;;;-128.00;-1.00;-1.00;105995;1250;1006184;-73
2023/08/24 10:32:27;;;;;;;;;;;;;;;-128.00;-1.00;-1.00;105929;1251;1055737;-74
2023/08/24 10:34:53;;;;;;;4.20;3.20;;;;;;;-128.00;-1.00;-1.00;105883;1250;1004213;-74
2023/08/24 10:37:29;;;;;;;4.00;3.40;;;;;;;-128.00;-1.00;-1.00;105938;1249;1003868;-76
2023/08/24 10:39:55;;;;;;;4.20;3.80;;;;;;;-128.00;-1.00;-1.00;105895;1250;1045855;-73
2023/08/24 10:42:22;;;;;;;4.10;3.40;;;;;;;-128.00;-1.00;-1.00;105851;1251;1004423;-75
2023/08/24 10:44:51;;;;;;;4.80;3.60;;;;;;;-128.00;-1.00;-1.00;105827;1251;1004718;-75
2023/08/24 10:47:23;;;;;;;6.50;3.70;;;;;;;-128.00;-1.00;-1.00;105440;1251;1060795;-75
2023/08/24 10:49:56;;;;;;;5.10;4.50;;;;;;;-128.00;-1.00;-1.00;105826;1251;1044863;-75
2023/08/24 10:52:34;;;;;;;5.30;4.00;;;;;;;-128.00;-1.00;-1.00;105807;1251;1046540;-74
2023/08/24 10:55:02;;;;;;;4.50;3.80;;;;;;;-128.00;-1.00;-1.00;105828;1251;1062918;-75
2023/08/24 10:57:37;;;;;;;6.80;3.20;;;;;;;-128.00;-1.00;-1.00;105848;1251;1055717;-75
2023/08/24 11:00:10;;;;;;;7.90;4.20;;;;;;;-128.00;-1.00;-1.00;105857;1249;1059305;-74
2023/08/24 11:02:48;;;;;;;3.70;3.20;;;;;;;-128.00;-1.00;-1.00;105963;1250;1044501;-75
2023/08/24 11:05:28;;;;;;;4.20;3.70;;;;;;;-128.00;-1.00;-1.00;105930;1249;1046971;-75
2023/08/24 11:07:58;;;;;;;8.10;3.00;;;;;;;-128.00;-1.00;-1.00;105890;1250;1061995;-75
2023/08/24 11:10:31;;;;;;;3.40;3.00;;;;;;;-128.00;-1.00;-1.00;105913;1250;1054669;-75
2023/08/24 11:13:06;;;;;;;3.80;3.30;;;;;;;-128.00;-1.00;-1.00;105905;1250;1059124;-76
2023/08/24 11:15:34;;;;;;;5.90;3.20;;;;;;;-128.00;-1.00;-1.00;105976;1249;1045147;-75
2023/08/24 11:18:39;;;;;;;6.30;3.40;;;;;;;-128.00;-1.00;-1.00;105950;1250;1003624;-74
2023/08/24 11:21:09;;;;;;;3.80;3.50;;;;;;;-128.00;-1.00;-1.00;105142;1259;1063450;-74